Time;durP1;ratioP1;P1;durP2;ratioP2;P2;SDS_P1;SDS_P2;PMS_P1;PMS_P2;Temp;Humidity;BMP_temperature;BMP_pressure;BME280_temperature;BME280_humidity;BME280_pressure;Samples;Min_cycle;Max_cycle;Signal;HPM_P1;HPM_P2
2022/10/13 00:03:46;;;;;;;3.10;2.00;;;10.30;50.60;;;8.66;51.52;101782.09;12259428;19;20007;-86
2022/10/13 00:07:55;;;;;;;2.97;2.20;;;10.30;50.60;;;9.03;51.47;101832.19;12255097;19;20482;-85
2022/10/13 00:11:57;;;;;;;2.25;1.70;;;10.20;50.50;;;8.84;51.60;101802.38;12258184;19;20031;-86
2022/10/13 00:16:02;;;;;;;1.88;1.70;;;10.20;50.50;;;8.84;51.38;101810.19;12255472;19;20480;-86
2022/10/13 00:20:06;;;;;;;2.22;1.90;;;10.20;50.50;;;9.04;51.59;101851.25;12255781;19;20504;-86
2022/10/13 00:24:11;;;;;;;1.85;1.60;;;10.20;50.50;;;9.01;51.59;101851.34;12254795;19;20018;-85
2022/10/13 00:28:18;;;;;;;2.10;1.80;;;10.10;50.50;;;8.92;51.72;101839.47;12250057;19;20035;-85
2022/10/13 00:32:20;;;;;;;4.72;1.42;;;10.10;50.50;;;8.88;51.65;101830.03;12253576;19;20747;-85
2022/10/13 00:36:23;;;;;;;1.98;1.75;;;10.00;50.60;;;8.56;51.54;101789.31;12251246;19;20456;-85
2022/10/13 00:40:24;;;;;;;4.05;2.30;;;10.20;50.70;;;8.88;51.75;101834.38;12253467;19;20021;-86
2022/10/13 00:45:04;;;;;;;2.28;1.60;;;10.00;50.60;;;8.82;51.67;101825.84;12248515;19;20025;-86
2022/10/13 00:49:13;;;;;;;2.92;1.88;;;10.00;50.70;;;8.82;51.74;101832.81;12248314;19;20009;-85
2022/10/13 00:53:23;;;;;;;1.88;1.52;;;9.90;50.60;;;8.79;51.67;101828.56;12249357;19;20018;-85
2022/10/13 00:57:25;;;;;;;3.00;1.98;;;9.90;50.60;;;8.82;51.56;101832.81;12248356;19;20046;-86
2022/10/13 01:01:27;;;;;;;3.35;1.88;;;9.90;50.60;;;8.82;51.88;101835.44;12248693;19;20035;-86
2022/10/13 01:05:30;;;;;;;4.70;2.35;;;9.90;50.60;;;8.52;51.76;101785.97;12248453;19;20471;-86
2022/10/13 01:09:36;;;;;;;5.25;2.63;;;9.90;50.60;;;8.71;51.88;101837.50;12245347;19;20078;-85
2022/10/13 01:14:05;;;;;;;5.15;2.75;;;9.80;50.60;;;8.72;51.91;101837.47;12245732;19;20017;-86
2022/10/13 01:18:34;;;;;;;3.88;2.08;;;9.80;50.70;;;8.70;51.85;101841.88;12238389;19;20025;-85
2022/10/13 01:23:11;;;;;;;2.38;2.17;;;9.80;50.70;;;8.56;51.81;101820.56;12246895;19;20015;-85
2022/10/13 01:27:18;;;;;;;3.72;2.40;;;9.80;50.70;;;8.68;51.96;101827.19;12244343;19;20011;-85
2022/10/13 01:31:29;;;;;;;3.65;2.17;;;9.80;50.70;;;8.23;52.01;101763.34;12245898;19;20010;-85
2022/10/13 01:35:51;;;;;;;3.88;2.30;;;9.80;50.70;;;8.63;51.97;101819.50;12244485;19;20475;-85
2022/10/13 01:40:19;;;;;;;4.30;2.15;;;9.70;50.70;;;8.05;51.85;101722.28;12241838;19;20007;-85
2022/10/13 01:44:37;;;;;;;3.55;1.83;;;9.70;50.70;;;8.58;51.81;101814.41;12246832;19;20018;-85
2022/10/13 01:48:41;;;;;;;3.47;2.08;;;9.70;50.70;;;8.45;51.77;101794.84;12242456;19;20016;-85
2022/10/13 01:52:45;;;;;;;4.30;2.07;;;9.70;50.60;;;8.46;51.80;101790.53;12268009;19;20003;-86
2022/10/13 01:56:54;;;;;;;2.88;1.80;;;9.70;50.60;;;8.43;51.85;101798.41;12249584;19;20019;-86
2022/10/13 02:01:05;;;;;;;2.75;1.80;;;9.60;50.60;;;8.46;51.80;101801.78;12264791;19;20092;-86
2022/10/13 02:05:29;;;;;;;2.85;1.83;;;9.60;50.60;;;8.46;52.07;101799.19;12264430;19;20035;-86
2022/10/13 02:10:16;;;;;;;1.60;1.38;;;9.60;50.80;;;8.38;52.07;101801.13;12257319;19;20368;-85
2022/10/13 02:14:26;;;;;;;3.00;2.17;;;9.50;50.70;;;8.35;52.05;101783.84;12258624;19;20022;-86
2022/10/13 02:18:33;;;;;;;3.00;1.98;;;9.50;50.90;;;8.34;51.83;101796.88;12253871;19;20555;-86
2022/10/13 02:22:42;;;;;;;2.05;1.88;;;9.50;50.90;;;8.30;52.07;101783.13;12261653;19;20006;-85
2022/10/13 02:26:44;;;;;;;2.88;2.05;;;9.50;51.20;;;8.19;52.01;101761.75;12257321;19;20444;-85
2022/10/13 02:30:46;;;;;;;2.13;1.92;;;9.50;51.10;;;8.18;51.96;101760.91;12259501;19;20016;-86
2022/10/13 02:34:49;;;;;;;2.45;1.73;;;9.40;51.20;;;8.16;52.01;101748.84;12260407;19;20031;-85
2022/10/13 02:38:51;;;;;;;4.07;2.22;;;9.50;51.30;;;8.30;52.27;101775.31;12256456;19;20023;-85
2022/10/13 02:42:54;;;;;;;2.72;2.15;;;9.40;51.30;;;7.76;52.07;101680.59;12259447;19;20015;-86
2022/10/13 02:46:56;;;;;;;1.67;1.58;;;9.50;51.40;;;7.93;52.16;101711.31;12255993;19;20022;-86
2022/10/13 02:50:58;;;;;;;3.40;2.10;;;9.80;51.50;;;8.19;52.17;101747.00;12258602;19;20021;-85
2022/10/13 02:54:59;;;;;;;3.45;1.83;;;9.50;51.30;;;8.29;52.18;101755.41;12258072;19;20026;-85
2022/10/13 02:59:01;;;;;;;2.85;2.03;;;9.50;51.40;;;8.29;52.25;101750.19;12248294;19;20018;-85
2022/10/13 03:03:03;;;;;;;4.03;2.35;;;9.50;51.50;;;8.24;52.33;101735.63;12255500;19;20011;-86
2022/10/13 03:07:04;;;;;;;3.65;2.05;;;9.40;51.40;;;8.15;52.24;101724.53;12253618;19;20046;-85
2022/10/13 03:11:06;;;;;;;3.35;2.22;;;9.40;51.30;;;7.84;52.28;101688.19;12254898;19;20014;-85
2022/10/13 03:15:08;;;;;;;2.70;1.70;;;9.40;51.30;;;8.11;52.46;101733.34;12252282;19;20046;-85
2022/10/13 03:19:10;;;;;;;3.00;1.70;;;9.30;51.30;;;8.18;52.40;101749.63;12252538;19;20014;-85
2022/10/13 03:23:12;;;;;;;2.45;1.75;;;9.30;51.40;;;7.87;52.47;101705.44;12254986;19;20510;-85
2022/10/13 03:27:14;;;;;;;3.60;2.08;;;9.30;51.40;;;8.12;52.45;101734.19;12254094;19;20011;-86
2022/10/13 03:31:17;;;;;;;2.75;2.03;;;9.30;51.50;;;8.09;52.33;101736.91;12250634;19;20425;-85
2022/10/13 03:35:19;;;;;;;2.33;1.83;;;9.30;51.40;;;7.67;52.49;101679.97;12253286;19;20021;-86
2022/10/13 03:39:21;;;;;;;2.00;1.80;;;9.50;51.50;;;7.97;52.41;101715.53;12249274;19;20018;-85
2022/10/13 03:43:23;;;;;;;2.90;1.80;;;9.30;51.40;;;7.98;52.43;101698.19;12254396;19;20014;-85
2022/10/13 03:47:25;;;;;;;4.30;1.88;;;9.20;51.40;;;7.48;52.54;101632.84;12254044;19;20040;-85
2022/10/13 03:51:27;;;;;;;3.25;2.10;;;9.10;51.20;;;7.81;52.57;101693.47;12254402;19;20022;-85
2022/10/13 03:55:28;;;;;;;2.55;2.00;;;9.20;51.30;;;7.99;52.37;101736.28;12252478;19;20023;-85
2022/10/13 03:59:30;;;;;;;2.88;2.25;;;9.10;51.30;;;7.96;52.56;101721.63;12267589;19;20033;-86
2022/10/13 04:03:34;;;;;;;2.15;1.75;;;9.40;51.40;;;7.90;52.63;101723.56;12264696;19;20377;-86
2022/10/13 04:07:35;;;;;;;4.65;2.20;;;9.30;51.50;;;7.52;52.44;101645.72;12254788;19;20024;-86
2022/10/13 04:11:42;;;;;;;4.50;1.88;;;9.10;51.40;;;7.90;52.67;101714.00;12252850;19;20071;-85
2022/10/13 04:15:44;;;;;;;3.00;1.60;;;9.10;51.30;;;7.92;52.66;101714.81;12256866;19;20026;-85
2022/10/13 04:19:46;;;;;;;1.77;1.67;;;9.00;51.30;;;7.87;52.47;101719.28;12252853;19;20265;-86
2022/10/13 04:23:48;;;;;;;1.65;1.55;;;9.30;51.30;;;7.78;52.62;101703.97;12258310;19;20006;-86
2022/10/13 04:27:50;;;;;;;2.22;1.90;;;9.10;51.30;;;7.80;52.68;101706.50;12253086;19;20011;-86
2022/10/13 04:31:52;;;;;;;5.03;2.30;;;9.00;51.20;;;7.59;52.49;101671.53;12251702;19;20027;-84
2022/10/13 04:35:53;;;;;;;3.38;2.47;;;9.00;51.20;;;7.82;52.70;101696.91;12255773;19;20500;-85
2022/10/13 04:39:55;;;;;;;3.15;2.17;;;9.00;51.20;;;7.74;52.62;101689.31;12254582;19;20062;-85
2022/10/13 04:43:57;;;;;;;4.55;1.83;;;9.40;51.40;;;7.83;52.62;101711.59;12249731;19;20006;-85
2022/10/13 04:48:00;;;;;;;2.22;1.90;;;9.00;51.30;;;7.86;52.85;101704.59;12253775;19;20014;-87
2022/10/13 04:52:01;;;;;;;5.07;1.73;;;9.00;51.40;;;7.78;52.60;101698.75;12251145;19;20286;-86
2022/10/13 04:56:10;;;;;;;3.67;2.13;;;9.00;51.30;;;7.69;52.74;101667.78;12250323;19;20017;-87
2022/10/13 05:00:12;;;;;;;3.25;2.03;;;9.00;51.40;;;7.81;52.83;101687.41;12250902;19;20010;-86
2022/10/13 05:04:14;;;;;;;2.90;2.05;;;9.00;51.40;;;7.85;52.78;101684.66;12250509;19;20047;-86
2022/10/13 05:08:15;;;;;;;3.00;2.05;;;9.00;51.50;;;7.81;52.65;101682.22;12250510;19;20022;-84
2022/10/13 05:12:17;;;;;;;4.43;2.38;;;9.30;51.70;;;7.79;52.89;101681.41;12248868;19;20416;-86
2022/10/13 05:16:20;;;;;;;3.75;2.10;;;9.00;51.60;;;7.68;52.79;101664.34;12248206;19;20427;-86
2022/10/13 05:20:22;;;;;;;2.90;2.00;;;9.00;51.60;;;7.71;52.83;101677.25;12249478;19;20095;-86
2022/10/13 05:24:35;;;;;;;2.22;2.03;;;9.00;51.60;;;7.25;52.83;101600.56;12247605;19;20011;-86
2022/10/13 05:28:37;;;;;;;2.30;2.10;;;9.00;51.70;;;7.78;52.79;101674.47;12246009;19;20006;-87
2022/10/13 05:32:38;;;;;;;2.42;2.08;;;9.00;51.70;;;7.87;53.07;101689.84;12253748;19;20013;-86
2022/10/13 05:36:40;;;;;;;4.35;2.15;;;9.10;51.80;;;7.89;53.01;101682.84;12262305;19;20016;-84
2022/10/13 05:40:42;;;;;;;2.72;1.98;;;9.00;51.90;;;7.73;53.05;101665.06;12264128;19;20104;-84
2022/10/13 05:44:46;;;;;;;3.05;2.20;;;9.10;51.90;;;7.59;52.86;101629.94;12262687;19;20009;-84
2022/10/13 05:48:49;;;;;;;3.00;2.23;;;9.10;52.00;;;7.86;52.96;101673.38;12258938;19;20006;-87
2022/10/13 05:52:51;;;;;;;3.03;2.25;;;9.10;52.00;;;7.83;53.00;101657.00;12261741;19;20042;-84
2022/10/13 05:57:11;;;;;;;2.80;1.67;;;9.10;52.20;;;7.80;53.01;101657.94;12257973;19;20038;-87
2022/10/13 06:01:18;;;;;;;4.55;2.28;;;9.20;52.40;;;7.75;53.24;101642.50;12261218;19;20038;-85
2022/10/13 06:05:23;;;;;;;2.55;2.25;;;9.10;52.60;;;7.60;53.33;101614.31;12283318;19;20010;-86
2022/10/13 06:09:34;;;;;;;2.63;2.20;;;9.20;52.60;;;7.96;53.50;101668.75;12264647;19;20401;-87
2022/10/13 06:13:36;;;;;;;3.17;2.15;;;9.20;52.80;;;7.95;53.17;101665.31;12265750;19;20026;-87
2022/10/13 06:17:38;;;;;;;2.92;2.20;;;9.20;52.90;;;8.05;53.27;101665.06;12260526;19;20015;-86
2022/10/13 06:21:40;;;;;;;4.03;2.28;;;9.30;52.90;;;8.08;53.54;101659.75;12265103;19;20010;-85
2022/10/13 06:25:49;;;;;;;4.25;2.15;;;9.30;53.20;;;8.03;53.58;101643.44;12263953;19;20014;-89
2022/10/13 06:29:50;;;;;;;3.45;2.47;;;9.50;53.30;;;8.22;53.62;101667.16;12255920;19;20100;-85
2022/10/13 06:33:52;;;;;;;4.20;2.55;;;9.40;53.20;;;8.27;53.66;101671.31;12259005;19;20017;-88
2022/10/13 06:37:56;;;;;;;2.47;2.28;;;9.50;53.30;;;8.27;53.49;101663.50;12257191;19;20029;-88
2022/10/13 06:41:57;;;;;;;6.00;2.28;;;9.50;53.40;;;7.92;53.63;101600.38;12260717;19;20496;-88
2022/10/13 06:46:07;;;;;;;3.53;2.78;;;9.60;53.70;;;8.17;53.84;101630.84;12260557;19;20015;-87
2022/10/13 06:50:31;;;;;;;4.23;2.50;;;9.70;53.80;;;8.10;53.73;101627.59;12261631;19;20022;-88
2022/10/13 06:54:38;;;;;;;7.13;2.80;;;9.70;54.10;;;8.52;53.68;101675.78;12261947;19;20018;-88
2022/10/13 07:03:04;;;;;;;4.63;2.83;;;9.80;54.00;;;8.16;53.79;101613.56;12255335;19;20460;-86
2022/10/13 07:24:17;;;;;;;4.30;2.85;;;10.10;54.80;;;8.69;54.32;101621.41;12261585;19;20010;-87
2022/10/13 07:28:19;;;;;;;4.07;3.60;;;10.40;55.20;;;8.48;54.51;101559.63;12253054;19;20018;-87
2022/10/13 07:32:21;;;;;;;7.38;2.95;;;10.50;55.50;;;8.68;54.41;101578.06;12254657;19;20026;-87
2022/10/13 07:36:26;;;;;;;3.83;3.05;;;10.60;55.60;;;8.65;54.35;101546.94;12252682;19;20021;-87
2022/10/13 07:40:52;;;;;;;4.43;3.15;;;10.50;55.50;;;8.77;54.60;101545.66;12252358;19;20015;-87
2022/10/13 07:45:01;;;;;;;5.68;3.55;;;10.80;55.80;;;8.74;54.64;101520.56;12254130;19;20014;-87
2022/10/13 07:49:11;;;;;;;8.35;5.03;;;10.90;56.00;;;9.15;54.96;101572.09;12253484;19;20014;-86
2022/10/13 07:53:13;;;;;;;9.85;4.78;;;11.00;56.30;;;9.31;54.97;101568.88;12256767;19;20049;-87
2022/10/13 07:57:15;;;;;;;12.40;6.00;;;11.00;56.10;;;9.40;54.80;101548.63;12247672;19;20460;-86
2022/10/13 08:01:16;;;;;;;10.25;5.80;;;11.40;56.20;;;9.72;54.94;101574.34;12253423;19;20092;-86
2022/10/13 08:05:18;;;;;;;11.60;5.93;;;11.30;56.30;;;9.86;55.24;101554.72;12254714;19;20015;-86
2022/10/13 08:09:20;;;;;;;9.85;6.57;;;11.70;56.50;;;10.43;55.22;101618.59;12259430;19;20018;-87
2022/10/13 08:13:21;;;;;;;10.57;6.38;;;12.00;56.60;;;10.60;55.08;101615.28;12254026;19;20414;-86
2022/10/13 08:17:23;;;;;;;9.95;6.70;;;11.90;56.30;;;10.67;55.37;101603.69;12244895;19;20816;-86
2022/10/13 08:21:28;;;;;;;12.18;6.05;;;12.20;56.50;;;10.77;55.22;101583.25;12251196;19;20396;-85
2022/10/13 08:25:29;;;;;;;8.93;5.45;;;12.20;56.20;;;10.84;55.34;101566.41;12248016;19;20035;-85
2022/10/13 08:29:31;;;;;;;12.90;6.28;;;12.40;56.20;;;11.22;55.49;101595.25;12248742;19;20022;-87
2022/10/13 08:33:33;;;;;;;11.05;6.68;;;12.60;56.60;;;11.53;55.54;101607.81;12251953;19;20022;-87
2022/10/13 08:37:34;;;;;;;9.38;6.03;;;12.80;56.70;;;11.68;55.65;101601.03;12246220;19;20453;-87
2022/10/13 08:41:42;;;;;;;10.75;6.47;;;13.20;56.50;;;11.89;55.83;101602.69;12247731;19;20006;-85
2022/10/13 08:45:47;;;;;;;6.10;4.65;;;13.20;56.60;;;12.13;55.88;101598.06;12249479;19;20010;-86
2022/10/13 08:49:49;;;;;;;6.80;4.15;;;13.60;56.40;;;12.20;55.72;101572.44;12245509;19;20010;-86
2022/10/13 08:53:51;;;;;;;9.07;5.10;;;13.70;56.10;;;12.61;55.83;101596.63;12249706;19;20014;-86
2022/10/13 08:57:53;;;;;;;6.85;4.35;;;13.90;56.10;;;12.80;55.90;101593.06;12245161;19;20007;-86
2022/10/13 09:02:10;;;;;;;7.60;4.82;;;14.20;55.80;;;12.50;55.78;101512.47;12244608;19;20468;-88
2022/10/13 09:06:36;;;;;;;8.32;5.45;;;14.40;55.80;;;13.14;55.85;101578.22;12248857;19;20033;-85
2022/10/13 09:10:49;;;;;;;;;;;14.60;56.10;;;13.33;55.62;101593.88;12248639;19;20018;-86
2022/10/13 09:15:10;;;;;;;5.00;3.92;;;14.80;55.50;;;13.40;55.71;101577.72;12251027;19;19915;-86
2022/10/13 09:19:35;;;;;;;5.35;3.42;;;15.00;55.40;;;13.53;55.72;101572.69;12250111;19;20464;-86
2022/10/13 09:23:37;;;;;;;6.32;4.70;;;15.10;55.20;;;13.82;55.75;101588.59;12250052;19;20417;-85
2022/10/13 09:27:58;;;;;;;5.45;3.92;;;15.30;55.10;;;13.95;55.76;101600.13;12239661;19;20009;-85
2022/10/13 09:32:24;;;;;;;5.82;4.40;;;15.40;55.20;;;13.90;55.67;101562.75;12248271;19;20514;-84
2022/10/13 09:36:26;;;;;;;5.63;4.03;;;15.50;55.20;;;14.22;55.70;101587.22;12245102;19;20026;-85
2022/10/13 09:40:30;;;;;;;5.85;4.40;;;15.60;55.00;;;14.09;55.70;101541.56;12247339;19;20352;-85
2022/10/13 09:44:32;;;;;;;5.78;3.70;;;15.90;55.10;;;14.38;55.48;101564.38;12250173;19;20394;-85
2022/10/13 09:48:36;;;;;;;7.32;3.60;;;15.80;54.90;;;14.47;55.45;101563.00;12245134;19;20021;-86
2022/10/13 09:52:38;;;;;;;17.05;7.90;;;15.90;54.80;;;14.58;55.56;101565.91;12248341;19;20015;-86
2022/10/13 09:56:51;;;;;;;13.65;8.23;;;16.00;54.60;;;14.67;55.45;101572.41;12245178;19;20010;-85
2022/10/13 10:00:57;;;;;;;10.32;7.63;;;16.10;54.60;;;14.71;55.43;101559.91;12248057;19;20018;-85
2022/10/13 10:05:22;;;;;;;9.65;6.70;;;16.10;54.70;;;14.85;55.32;101569.59;12245271;19;20077;-85
2022/10/13 10:09:45;;;;;;;10.70;5.43;;;16.20;54.90;;;14.87;55.32;101563.31;12246044;19;20018;-86
2022/10/13 10:13:48;;;;;;;7.63;4.97;;;16.30;54.70;;;14.97;55.32;101564.47;12250921;19;20022;-85
2022/10/13 10:18:11;;;;;;;7.80;5.78;;;16.30;54.80;;;14.51;55.48;101482.22;12260393;19;20017;-85
2022/10/13 10:22:33;;;;;;;10.80;5.88;;;16.40;54.80;;;15.20;55.52;101578.00;12263364;19;20476;-85
2022/10/13 10:27:02;;;;;;;9.05;5.43;;;16.50;54.70;;;15.29;55.29;101580.09;12262774;19;20015;-86
2022/10/13 10:31:41;;;;;;;18.15;8.80;;;16.60;54.70;;;15.38;55.50;101568.16;12258566;19;20010;-84
2022/10/13 10:35:46;;;;;;;10.57;6.60;;;16.70;54.80;;;15.50;55.29;101572.66;12249335;19;20018;-86
2022/10/13 10:40:20;;;;;;;11.05;5.70;;;16.80;54.80;;;15.58;55.40;101574.78;12257749;19;20405;-85
2022/10/13 10:44:31;;;;;;;10.27;5.57;;;16.90;54.70;;;15.63;55.47;101562.19;12259953;19;20135;-86
2022/10/13 10:48:38;;;;;;;22.70;10.20;;;16.90;54.60;;;15.71;55.54;101546.78;12263622;19;20018;-86
2022/10/13 10:53:01;;;;;;;52.83;20.80;;;17.00;54.60;;;15.75;55.40;101534.28;12260426;19;20112;-86
2022/10/13 10:57:52;;;;;;;27.92;15.57;;;17.00;54.50;;;15.88;55.28;101541.28;12252632;19;20023;-87
2022/10/13 11:02:06;;;;;;;15.23;9.18;;;17.10;54.60;;;16.01;55.33;101540.47;12254313;19;20112;-87
2022/10/13 11:06:16;;;;;;;10.43;7.22;;;17.40;54.80;;;16.09;55.51;101531.16;12257151;19;20007;-87
2022/10/13 11:10:20;;;;;;;10.15;5.75;;;17.30;54.50;;;16.18;55.22;101532.34;12255659;19;20015;-86
2022/10/13 11:14:28;;;;;;;9.77;5.70;;;17.40;54.50;;;16.18;55.02;101505.16;12255602;19;20046;-87
2022/10/13 11:19:07;;;;;;;7.75;6.13;;;17.50;54.60;;;16.19;55.29;101496.28;12257476;19;20026;-86
2022/10/13 11:23:11;;;;;;;8.43;5.40;;;17.50;54.30;;;16.38;55.40;101508.13;12263395;19;20009;-88
2022/10/13 11:27:13;;;;;;;6.37;4.97;;;17.60;54.40;;;16.44;55.15;101496.31;12261999;19;20022;-86
2022/10/13 11:31:30;;;;;;;5.90;4.88;;;17.80;54.50;;;16.50;55.09;101492.41;12260426;19;20010;-85
2022/10/13 11:35:31;;;;;;;5.95;5.00;;;17.70;54.40;;;16.48;55.08;101463.53;12254152;19;20014;-85
2022/10/13 11:39:45;;;;;;;6.85;5.50;;;17.80;54.40;;;16.63;55.27;101472.16;12251423;19;20028;-84
2022/10/13 11:44:09;;;;;;;9.35;5.88;;;17.90;54.50;;;16.75;54.98;101473.97;12253194;19;20010;-84
2022/10/13 11:48:53;;;;;;;8.65;6.05;;;17.90;54.50;;;16.89;55.29;101485.41;12250448;19;20086;-83
2022/10/13 11:53:05;;;;;;;7.05;5.32;;;18.00;54.50;;;17.00;55.23;101473.13;12253496;19;20018;-84
2022/10/13 11:57:25;;;;;;;5.93;4.72;;;18.20;54.70;;;17.02;55.09;101462.47;12249620;19;20034;-85
2022/10/13 12:01:27;;;;;;;8.63;4.68;;;18.20;54.50;;;17.19;55.05;101470.03;12252339;19;20010;-84
2022/10/13 12:05:28;;;;;;;6.57;4.63;;;18.30;54.50;;;17.29;55.33;101458.84;12257178;19;20018;-84
2022/10/13 12:09:31;;;;;;;5.47;4.95;;;18.40;54.40;;;17.37;54.87;101462.59;12253614;19;20006;-84
2022/10/13 12:13:35;;;;;;;11.20;6.00;;;18.70;54.50;;;17.39;55.11;101446.63;12250733;19;20010;-85
2022/10/13 12:17:37;;;;;;;6.93;5.78;;;18.60;54.40;;;17.45;55.07;101433.00;12250523;19;20035;-85
2022/10/13 12:21:56;;;;;;;7.68;6.00;;;18.70;54.20;;;17.63;54.91;101436.94;12276850;19;20019;-84
2022/10/13 12:25:58;;;;;;;8.50;5.97;;;18.80;54.20;;;17.72;55.03;101434.56;12256092;19;20129;-84
2022/10/13 12:30:02;;;;;;;6.38;4.90;;;18.90;53.80;;;17.83;55.04;101429.38;12251426;19;20015;-85
2022/10/13 12:34:22;;;;;;;7.65;5.10;;;19.00;53.30;;;17.82;54.87;101419.72;12261232;19;20507;-86
2022/10/13 12:38:24;;;;;;;5.85;4.28;;;19.10;53.20;;;17.78;54.71;101402.41;12256995;19;20015;-85
2022/10/13 12:42:33;;;;;;;7.97;4.88;;;19.10;53.00;;;18.05;54.78;101436.53;12253355;19;20010;-85
2022/10/13 12:46:44;;;;;;;6.18;4.90;;;19.20;53.00;;;18.07;54.64;101432.81;12255395;19;20014;-85
2022/10/13 12:50:45;;;;;;;8.45;4.90;;;19.30;52.60;;;18.19;54.45;101438.97;12267434;19;20066;-86
2022/10/13 12:54:53;;;;;;;6.53;5.13;;;19.30;52.60;;;18.23;54.30;101443.06;12255337;19;20472;-84
2022/10/13 12:58:56;;;;;;;6.15;5.07;;;19.60;52.80;;;18.27;54.36;101438.38;12252794;19;20086;-84
2022/10/13 13:03:05;;;;;;;8.60;5.15;;;19.40;52.60;;;18.31;54.04;101431.91;12261319;19;20014;-86
2022/10/13 13:07:33;;;;;;;5.38;4.82;;;19.50;52.70;;;18.40;54.36;101435.66;12251002;19;20086;-86
2022/10/13 13:11:37;;;;;;;9.85;5.28;;;19.50;52.60;;;18.47;54.29;101439.47;12259035;19;20024;-85
2022/10/13 13:15:40;;;;;;;9.52;6.68;;;19.60;52.60;;;18.47;54.04;101424.47;12260815;19;20491;-85
2022/10/13 13:19:48;;;;;;;6.47;5.55;;;19.60;52.50;;;18.52;54.36;101432.91;12252427;19;20062;-84
2022/10/13 13:23:49;;;;;;;8.60;5.28;;;19.60;52.60;;;18.55;54.10;101431.78;12247863;19;20014;-84
2022/10/13 13:27:51;;;;;;;8.68;5.60;;;19.70;52.70;;;18.37;54.21;101394.41;12249177;19;20002;-85
2022/10/13 13:31:53;;;;;;;7.95;5.47;;;19.70;52.60;;;18.67;54.18;101440.59;12249044;19;20011;-85
2022/10/13 13:35:55;;;;;;;8.05;6.00;;;19.70;52.40;;;18.68;54.18;101432.53;12244706;19;20007;-83
2022/10/13 13:39:57;;;;;;;7.82;6.05;;;19.80;52.40;;;18.68;53.94;101431.69;12237805;19;20602;-84
2022/10/13 13:43:59;;;;;;;6.40;5.47;;;19.80;52.50;;;18.64;54.02;101417.03;12233938;19;20010;-84
2022/10/13 13:48:00;;;;;;;7.38;5.13;;;19.80;52.50;;;18.75;53.94;101423.19;12248866;19;20341;-85
2022/10/13 13:52:02;;;;;;;6.53;5.72;;;20.00;52.60;;;18.77;53.94;101421.28;12247494;19;20021;-84
2022/10/13 13:56:04;;;;;;;8.90;5.63;;;19.80;52.40;;;18.78;53.64;101416.81;12255236;19;20552;-85
2022/10/13 14:00:06;;;;;;;7.03;5.07;;;19.80;52.50;;;18.83;53.56;101424.41;12259071;19;20018;-85
2022/10/13 14:04:12;;;;;;;5.88;5.28;;;19.90;52.50;;;18.78;53.94;101407.06;12261100;19;20013;-86
2022/10/13 14:08:14;;;;;;;8.05;4.55;;;19.90;52.60;;;18.74;53.66;101388.88;12258600;19;20014;-85
2022/10/13 14:12:16;;;;;;;8.95;4.78;;;20.20;52.50;;;18.86;53.82;101403.81;12245427;19;20014;-85
2022/10/13 14:16:17;;;;;;;5.20;4.53;;;19.90;52.30;;;18.88;53.74;101403.72;12253757;19;20018;-85
2022/10/13 14:20:20;;;;;;;8.07;4.82;;;20.00;52.40;;;18.93;53.71;101405.03;12258814;19;20035;-85
2022/10/13 14:24:49;;;;;;;6.93;5.18;;;19.90;52.40;;;18.95;53.81;101397.78;12257297;19;20014;-84
2022/10/13 14:28:51;;;;;;;6.55;5.25;;;20.00;52.40;;;18.96;53.43;101380.13;12254122;19;20018;-84
2022/10/13 14:32:52;;;;;;;8.68;5.57;;;20.00;52.30;;;19.05;53.41;101381.16;12254890;19;20118;-84
2022/10/13 14:36:54;;;;;;;7.60;5.47;;;20.00;52.40;;;18.92;53.51;101350.38;12254097;19;20006;-84
2022/10/13 14:41:04;;;;;;;8.35;6.28;;;20.10;52.20;;;19.06;53.59;101370.44;12255476;19;20622;-84
2022/10/13 14:45:06;;;;;;;8.85;6.22;;;20.30;52.20;;;19.13;53.64;101376.94;12253966;19;20035;-84
2022/10/13 14:49:10;;;;;;;7.60;6.22;;;20.20;52.00;;;19.11;53.56;101380.66;12246852;19;20006;-84
2022/10/13 14:53:15;;;;;;;8.60;6.18;;;20.10;52.00;;;19.12;53.38;101377.91;12251195;19;20444;-83
2022/10/13 14:57:17;;;;;;;6.68;5.45;;;20.10;52.10;;;19.06;53.27;101377.56;12249692;19;20476;-83
2022/10/13 15:01:19;;;;;;;8.60;5.15;;;20.10;52.00;;;19.08;53.03;101372.97;12249425;19;20025;-83
2022/10/13 15:05:21;;;;;;;10.55;6.63;;;20.10;52.00;;;19.09;53.28;101374.66;12243443;19;20014;-83
2022/10/13 15:09:22;;;;;;;6.07;5.18;;;20.00;52.10;;;18.90;53.55;101340.88;12241303;19;20018;-83
2022/10/13 15:13:24;;;;;;;10.32;6.93;;;20.10;52.20;;;19.07;53.31;101379.25;12248363;19;20018;-83
2022/10/13 15:17:26;;;;;;;11.95;7.07;;;20.30;52.50;;;19.10;53.13;101379.84;12246191;19;20020;-83
2022/10/13 15:21:28;;;;;;;7.03;5.18;;;20.00;52.40;;;19.03;53.41;101373.34;12251025;19;20476;-83
2022/10/13 15:25:30;;;;;;;7.63;5.20;;;20.00;52.60;;;19.01;53.17;101370.84;12250216;19;20457;-83
2022/10/13 15:29:31;;;;;;;6.30;4.55;;;20.00;52.60;;;18.99;53.34;101372.75;12247194;19;20018;-83
2022/10/13 15:33:34;;;;;;;4.47;3.60;;;20.00;52.70;;;18.90;53.28;101367.34;12252190;19;20410;-84
2022/10/13 15:37:35;;;;;;;4.25;3.60;;;19.90;52.70;;;18.83;53.21;101374.94;12251230;19;20003;-84
2022/10/13 15:41:37;;;;;;;5.25;3.97;;;19.80;52.70;;;18.75;53.15;101362.31;12250572;19;20023;-83
2022/10/13 15:45:39;;;;;;;3.95;3.65;;;19.90;52.80;;;18.64;53.33;101357.03;12252750;19;20021;-83
2022/10/13 15:49:41;;;;;;;6.13;4.00;;;19.70;52.90;;;18.63;53.46;101362.41;12245983;19;20025;-84
2022/10/13 15:53:42;;;;;;;4.68;4.15;;;19.60;52.80;;;18.48;53.41;101360.03;12251578;19;20532;-83
2022/10/13 15:57:45;;;;;;;5.05;3.78;;;19.50;52.90;;;18.33;53.22;101342.72;12249885;19;20014;-84
2022/10/13 16:01:47;;;;;;;5.30;4.00;;;19.40;52.90;;;18.44;53.18;101374.44;12249447;19;20016;-83
2022/10/13 16:05:49;;;;;;;9.30;3.83;;;19.40;52.90;;;18.35;53.31;101378.66;12251035;19;20044;-84
2022/10/13 16:09:50;;;;;;;5.15;3.20;;;19.40;52.90;;;18.29;53.55;101383.59;12247687;19;20035;-83
2022/10/13 16:13:52;;;;;;;7.43;4.22;;;19.20;52.90;;;18.21;53.46;101384.16;12254219;19;20010;-83
2022/10/13 16:17:53;;;;;;;4.13;3.72;;;19.10;52.80;;;18.11;53.58;101380.53;12243148;19;20476;-83
2022/10/13 16:21:55;;;;;;;5.05;4.38;;;19.10;52.80;;;17.95;53.34;101362.38;12243079;19;20377;-83
2022/10/13 16:25:56;;;;;;;4.35;3.60;;;18.90;52.90;;;17.97;53.37;101384.25;12250484;19;20461;-83
2022/10/13 16:30:00;;;;;;;9.05;4.30;;;18.90;53.00;;;17.62;53.30;101329.59;12266648;19;20024;-84
2022/10/13 16:34:01;;;;;;;8.43;5.95;;;18.80;53.00;;;17.86;53.59;101376.28;12252099;19;20011;-83
2022/10/13 16:38:03;;;;;;;6.85;5.95;;;18.70;53.10;;;17.79;53.45;101382.97;12243628;19;20094;-83
2022/10/13 16:42:04;;;;;;;11.38;7.47;;;18.60;53.10;;;17.69;53.33;101370.44;12243943;19;20382;-83
2022/10/13 16:46:12;;;;;;;7.68;6.88;;;18.50;53.20;;;17.53;53.46;101363.78;12249993;19;20030;-83
2022/10/13 16:50:13;;;;;;;12.40;9.02;;;18.60;53.30;;;17.43;53.37;101360.97;12250707;19;20483;-84
2022/10/13 16:54:15;;;;;;;9.43;7.75;;;18.30;53.20;;;17.46;53.38;101368.66;12247470;19;20031;-82
2022/10/13 16:58:16;;;;;;;10.05;7.65;;;18.30;53.30;;;17.37;53.24;101367.56;12247601;19;20043;-83
2022/10/13 17:02:18;;;;;;;9.15;6.93;;;18.20;53.40;;;17.27;53.36;101365.69;12247757;19;20701;-83
2022/10/13 17:06:24;;;;;;;8.05;6.05;;;18.10;53.30;;;17.20;53.50;101366.16;12248323;19;20050;-83
2022/10/13 17:10:33;;;;;;;9.15;5.60;;;18.00;53.30;;;17.01;53.58;101344.66;12250099;19;20087;-84
2022/10/13 17:14:35;;;;;;;6.57;5.10;;;17.90;53.40;;;17.07;53.59;101365.34;12249320;19;20568;-83
2022/10/13 17:18:37;;;;;;;6.63;4.97;;;17.90;53.50;;;16.92;53.68;101353.25;12247183;19;20006;-84
2022/10/13 17:22:39;;;;;;;6.22;4.40;;;17.80;53.60;;;16.87;53.49;101352.75;12248477;19;20031;-83
2022/10/13 17:26:41;;;;;;;8.68;5.75;;;17.70;53.50;;;16.78;53.75;101357.72;12248501;19;20023;-83